createdAt,value
2022-09-28T00:01:25.319Z,63.90
2022-09-28T00:05:07.701Z,65.60
2022-09-28T00:08:52.452Z,64.00
2022-09-28T00:12:34.740Z,64.10
2022-09-28T00:16:19.822Z,64.20
2022-09-28T00:20:03.058Z,64.30
2022-09-28T00:24:04.427Z,64.40
2022-09-28T00:27:51.196Z,64.50
2022-09-28T00:31:34.365Z,65.00
2022-09-28T00:35:16.325Z,64.80
2022-09-28T00:39:03.598Z,64.90
2022-09-28T00:42:45.438Z,65.10
2022-09-28T00:46:35.528Z,65.10
2022-09-28T00:50:26.255Z,66.10
2022-09-28T00:54:09.385Z,65.90
2022-09-28T00:57:56.907Z,65.40
2022-09-28T01:01:39.098Z,65.50
2022-09-28T01:05:22.126Z,65.50
2022-09-28T01:09:08.827Z,65.70
2022-09-28T01:12:51.008Z,65.90
2022-09-28T01:16:46.254Z,65.90
2022-09-28T01:20:34.314Z,65.90
2022-09-28T01:24:42.331Z,66.50
2022-09-28T01:28:30.396Z,66.10
2022-09-28T01:32:31.121Z,66.10
2022-09-28T01:36:23.362Z,67.90
2022-09-28T01:40:07.275Z,66.90
2022-09-28T01:43:54.733Z,66.30
2022-09-28T01:47:39.992Z,66.60
2022-09-28T01:51:32.105Z,66.60
2022-09-28T01:55:34.201Z,67.40
2022-09-28T01:59:20.559Z,67.40
2022-09-28T02:03:10.680Z,66.90
2022-09-28T02:06:58.034Z,67.40
2022-09-28T02:10:51.840Z,67.00
2022-09-28T02:14:35.001Z,68.10
2022-09-28T02:18:17.507Z,67.00
2022-09-28T02:22:37.345Z,67.10
2022-09-28T02:26:23.199Z,68.90
2022-09-28T02:30:06.732Z,67.30
2022-09-28T02:33:51.414Z,67.20
2022-09-28T02:37:33.260Z,67.10
2022-09-28T02:41:39.910Z,67.10
2022-09-28T02:45:21.823Z,67.60
2022-09-28T02:49:25.861Z,66.80
2022-09-28T02:53:17.232Z,66.80
2022-09-28T02:57:11.249Z,67.20
2022-09-28T03:01:15.447Z,66.90
2022-09-28T03:05:12.151Z,67.60
2022-09-28T03:09:15.010Z,67.20
2022-09-28T03:12:57.777Z,67.90
2022-09-28T03:16:44.374Z,66.80
2022-09-28T03:20:27.684Z,67.00
2022-09-28T03:24:11.362Z,66.90
2022-09-28T03:27:53.211Z,66.90
2022-09-28T03:31:35.377Z,66.90
2022-09-28T03:35:17.241Z,66.90
2022-09-28T03:38:59.683Z,67.00
2022-09-28T03:42:43.997Z,67.20
2022-09-28T03:46:25.789Z,67.40
2022-09-28T03:50:08.043Z,67.50
2022-09-28T03:53:49.990Z,67.70
2022-09-28T03:57:31.936Z,67.70
2022-09-28T04:01:18.325Z,67.80
2022-09-28T04:05:00.498Z,67.80
2022-09-28T04:08:43.495Z,67.80
2022-09-28T04:12:25.438Z,67.80
2022-09-28T04:16:07.736Z,67.70
2022-09-28T04:19:49.584Z,67.80
2022-09-28T04:23:31.494Z,67.80
2022-09-28T04:27:31.839Z,67.70
2022-09-28T04:31:17.428Z,67.70
2022-09-28T04:34:59.347Z,67.60
2022-09-28T04:38:52.770Z,67.80
2022-09-28T04:42:37.161Z,67.80
2022-09-28T04:46:19.675Z,68.00
2022-09-28T04:50:01.533Z,68.20
2022-09-28T04:53:43.515Z,68.40
2022-09-28T04:57:25.357Z,68.50
2022-09-28T05:01:11.254Z,68.60
2022-09-28T05:04:55.435Z,68.80
2022-09-28T05:08:37.354Z,68.90
2022-09-28T05:12:19.248Z,69.00
2022-09-28T05:16:05.199Z,69.20
2022-09-28T05:19:47.517Z,69.30
2022-09-28T05:23:29.364Z,70.00
2022-09-28T05:27:11.209Z,68.90
2022-09-28T05:30:53.329Z,69.10
2022-09-28T05:34:35.209Z,69.20
2022-09-28T05:38:17.402Z,69.30
2022-09-28T05:41:59.239Z,69.50
2022-09-28T05:45:41.377Z,69.60
2022-09-28T05:49:23.287Z,69.70
2022-09-28T05:53:09.655Z,69.80
2022-09-28T05:56:51.579Z,69.90
2022-09-28T06:00:34.394Z,70.00
2022-09-28T06:04:16.578Z,69.90
2022-09-28T06:07:59.902Z,70.10
2022-09-28T06:11:41.700Z,70.20
2022-09-28T06:15:26.030Z,70.30
2022-09-28T06:19:12.522Z,70.60
2022-09-28T06:22:55.019Z,71.00
2022-09-28T06:26:38.330Z,71.50
2022-09-28T06:30:20.149Z,70.90
2022-09-28T06:34:02.330Z,71.10
2022-09-28T06:37:47.513Z,71.40
2022-09-28T06:41:29.400Z,71.40
2022-09-28T06:45:11.516Z,71.30
2022-09-28T06:48:54.700Z,71.20
2022-09-28T06:52:38.114Z,71.20
2022-09-28T06:56:21.246Z,71.40
2022-09-28T07:00:04.041Z,71.50
2022-09-28T07:03:45.986Z,71.70
2022-09-28T07:07:31.973Z,71.80
2022-09-28T07:11:14.590Z,72.00
2022-09-28T07:14:57.518Z,71.90
2022-09-28T07:18:39.449Z,72.30
2022-09-28T07:22:32.365Z,73.00
2022-09-28T07:26:24.352Z,73.00
2022-09-28T07:30:09.720Z,72.20
2022-09-28T07:33:56.164Z,71.80
2022-09-28T07:37:38.890Z,71.90
2022-09-28T07:41:33.202Z,71.90
2022-09-28T07:45:15.449Z,71.30
2022-09-28T07:48:57.642Z,71.40
2022-09-28T07:52:39.629Z,71.50
2022-09-28T07:56:21.587Z,71.70
2022-09-28T08:00:06.141Z,71.60
2022-09-28T08:03:48.653Z,71.50
2022-09-28T08:07:31.877Z,71.20
2022-09-28T08:11:16.874Z,71.00
2022-09-28T08:15:00.223Z,70.80
2022-09-28T08:18:42.192Z,70.70
2022-09-28T08:22:24.028Z,70.10
2022-09-28T08:26:06.823Z,68.80
2022-09-28T08:29:48.624Z,67.30
2022-09-28T08:33:31.001Z,65.40
2022-09-28T08:37:13.152Z,63.80
2022-09-28T08:41:06.194Z,62.90
2022-09-28T08:44:58.119Z,60.60
2022-09-28T08:49:23.648Z,61.50
2022-09-28T08:53:19.531Z,60.20
2022-09-28T08:57:13.500Z,61.00
2022-09-28T09:00:55.414Z,60.50
2022-09-28T09:04:37.885Z,61.80
2022-09-28T09:08:58.533Z,61.90
2022-09-28T09:12:40.405Z,58.10
2022-09-28T09:16:45.068Z,58.00
2022-09-28T09:20:45.905Z,53.50
2022-09-28T09:24:36.278Z,53.80
2022-09-28T09:28:43.745Z,51.10
2022-09-28T09:33:02.257Z,47.40
2022-09-28T09:37:34.217Z,46.90
2022-09-28T09:41:23.387Z,45.90
2022-09-28T09:45:05.626Z,45.90
2022-09-28T09:49:19.715Z,47.80
2022-09-28T09:53:38.622Z,46.20
2022-09-28T09:57:29.284Z,45.80
2022-09-28T10:01:15.685Z,46.00
2022-09-28T10:05:18.076Z,45.50
2022-09-28T10:09:32.622Z,43.40
2022-09-28T10:13:14.948Z,41.50
2022-09-28T10:16:58.658Z,42.40
2022-09-28T10:20:43.885Z,42.40
2022-09-28T10:24:31.181Z,42.20
2022-09-28T10:28:24.026Z,42.70
2022-09-28T10:32:22.792Z,41.30
2022-09-28T10:36:07.606Z,38.80
2022-09-28T10:39:55.491Z,37.90
2022-09-28T10:44:06.437Z,36.70
2022-09-28T10:47:56.042Z,35.00
2022-09-28T10:51:56.104Z,36.00
2022-09-28T10:55:38.258Z,35.80
2022-09-28T10:59:29.723Z,38.50
2022-09-28T11:03:29.269Z,38.40
2022-09-28T11:07:44.179Z,37.70
2022-09-28T11:11:31.371Z,38.90
2022-09-28T11:15:27.145Z,39.80
2022-09-28T11:19:21.683Z,39.30
2022-09-28T11:23:21.375Z,40.00
2022-09-28T11:27:05.903Z,40.10
2022-09-28T11:30:53.542Z,41.20
2022-09-28T11:35:00.299Z,41.20
2022-09-28T11:38:54.644Z,41.20
2022-09-28T11:43:38.752Z,42.00
2022-09-28T11:47:50.942Z,41.70
2022-09-28T11:51:36.760Z,42.00
2022-09-28T11:55:35.346Z,42.60
2022-09-28T11:59:38.694Z,42.10
2022-09-28T12:03:37.273Z,41.50
2022-09-28T12:07:27.539Z,38.80
2022-09-28T12:11:25.595Z,36.30
2022-09-28T12:15:25.708Z,38.30
2022-09-28T12:19:21.329Z,38.30
2022-09-28T12:23:12.461Z,39.10
2022-09-28T12:27:21.964Z,40.70
2022-09-28T12:31:16.258Z,40.60
2022-09-28T12:34:59.299Z,40.90
2022-09-28T12:39:08.767Z,41.00
2022-09-28T12:43:29.404Z,36.40
2022-09-28T12:47:21.607Z,35.40
2022-09-28T12:51:07.612Z,36.30
2022-09-28T12:55:26.801Z,35.60
2022-09-28T12:59:21.870Z,35.60
2022-09-28T13:03:45.680Z,36.30
2022-09-28T13:07:50.932Z,37.70
2022-09-28T13:12:06.856Z,39.00
2022-09-28T13:16:06.807Z,38.60
2022-09-28T13:20:18.279Z,38.30
2022-09-28T13:24:20.990Z,38.10
2022-09-28T13:28:07.723Z,39.20
2022-09-28T13:31:53.828Z,39.30
2022-09-28T13:35:41.524Z,39.10
2022-09-28T13:39:59.112Z,38.60
2022-09-28T13:44:04.176Z,37.10
2022-09-28T13:47:52.641Z,34.20
2022-09-28T13:52:03.797Z,32.80
2022-09-28T13:56:00.706Z,32.50
2022-09-28T14:00:08.546Z,31.50
2022-09-28T14:04:09.567Z,31.10
2022-09-28T14:08:20.782Z,30.40
2022-09-28T14:12:24.522Z,30.10
2022-09-28T14:16:18.671Z,30.70
2022-09-28T14:20:06.445Z,31.20
2022-09-28T14:24:20.206Z,33.60
2022-09-28T14:28:26.627Z,34.10
2022-09-28T14:32:08.434Z,36.10
2022-09-28T14:35:54.493Z,38.10
2022-09-28T14:39:57.065Z,41.00
2022-09-28T14:43:46.058Z,42.60
2022-09-28T14:47:35.513Z,45.50
2022-09-28T14:51:30.143Z,47.20
2022-09-28T14:55:15.700Z,49.10
2022-09-28T14:58:58.917Z,48.20
2022-09-28T15:02:43.802Z,48.90
2022-09-28T15:06:34.397Z,49.90
2022-09-28T15:10:35.632Z,50.40
2022-09-28T15:14:19.380Z,52.40
2022-09-28T15:18:30.422Z,51.40
2022-09-28T15:22:33.501Z,54.60
2022-09-28T15:26:48.384Z,53.90
2022-09-28T15:30:33.157Z,55.60
2022-09-28T15:34:50.600Z,53.00
2022-09-28T15:38:34.620Z,56.80
2022-09-28T15:42:18.620Z,54.20
2022-09-28T15:46:18.666Z,54.20
2022-09-28T15:50:07.338Z,56.20
2022-09-28T15:54:19.808Z,55.10
2022-09-28T15:58:20.391Z,56.40
2022-09-28T16:02:15.572Z,56.40
2022-09-28T16:06:10.925Z,56.80
2022-09-28T16:10:05.034Z,56.80
2022-09-28T16:14:07.389Z,55.90
2022-09-28T16:17:55.288Z,56.40
2022-09-28T16:21:45.083Z,55.40
2022-09-28T16:25:27.336Z,55.60
2022-09-28T16:29:28.412Z,55.80
2022-09-28T16:33:52.676Z,57.90
2022-09-28T16:37:34.549Z,57.80
2022-09-28T16:41:21.519Z,56.40
2022-09-28T16:45:07.906Z,56.40
2022-09-28T16:48:50.791Z,56.80
2022-09-28T16:52:51.758Z,56.40
2022-09-28T16:56:35.269Z,56.60
2022-09-28T17:00:20.322Z,56.80
2022-09-28T17:04:02.207Z,57.00
2022-09-28T17:07:45.356Z,57.20
2022-09-28T17:11:27.210Z,57.30
2022-09-28T17:15:09.421Z,57.40
2022-09-28T17:18:51.551Z,57.80
2022-09-28T17:22:33.470Z,57.90
2022-09-28T17:26:27.324Z,58.30
2022-09-28T17:30:11.841Z,59.40
2022-09-28T17:33:54.661Z,58.80
2022-09-28T17:37:36.564Z,59.00
2022-09-28T17:41:20.838Z,59.20
2022-09-28T17:45:02.936Z,59.30
2022-09-28T17:48:47.359Z,59.50
2022-09-28T17:52:29.434Z,59.70
2022-09-28T17:56:12.179Z,59.80
2022-09-28T17:59:54.023Z,60.00
2022-09-28T18:03:36.044Z,60.00
2022-09-28T18:07:17.916Z,60.20
2022-09-28T18:11:01.713Z,60.30
2022-09-28T18:14:43.638Z,60.50
2022-09-28T18:18:26.033Z,60.70
2022-09-28T18:22:07.943Z,60.90
2022-09-28T18:25:50.032Z,61.10
2022-09-28T18:29:33.437Z,61.30
2022-09-28T18:33:15.853Z,61.30
2022-09-28T18:36:57.788Z,61.40
2022-09-28T18:40:39.812Z,61.50
2022-09-28T18:44:22.045Z,61.50
2022-09-28T18:48:04.030Z,61.60
2022-09-28T18:51:45.881Z,61.70
2022-09-28T18:55:28.949Z,61.80
2022-09-28T18:59:12.322Z,62.00
2022-09-28T19:02:54.862Z,62.20
2022-09-28T19:06:41.628Z,62.40
2022-09-28T19:10:23.621Z,62.90
2022-09-28T19:14:05.504Z,62.50
2022-09-28T19:17:48.004Z,62.70
2022-09-28T19:21:31.012Z,63.10
2022-09-28T19:25:13.447Z,63.10
2022-09-28T19:28:59.214Z,63.30
2022-09-28T19:32:42.914Z,64.00
2022-09-28T19:36:28.520Z,63.70
2022-09-28T19:40:10.596Z,63.80
2022-09-28T19:43:52.446Z,63.90
2022-09-28T19:47:34.445Z,64.00
2022-09-28T19:51:16.345Z,64.10
2022-09-28T19:54:58.321Z,64.30
2022-09-28T19:58:40.810Z,64.40
2022-09-28T20:02:23.033Z,64.50
2022-09-28T20:06:05.733Z,64.60
2022-09-28T20:09:47.906Z,64.80
2022-09-28T20:13:32.222Z,64.80
2022-09-28T20:17:14.241Z,65.00
2022-09-28T20:21:08.082Z,65.30
2022-09-28T20:24:49.901Z,67.20
2022-09-28T20:28:32.241Z,65.70
2022-09-28T20:32:14.295Z,65.90
2022-09-28T20:35:56.143Z,66.00
2022-09-28T20:39:40.417Z,66.00
2022-09-28T20:43:27.068Z,66.10
2022-09-28T20:47:08.947Z,66.10
2022-09-28T20:51:01.536Z,66.10
2022-09-28T20:54:43.469Z,67.20
2022-09-28T20:58:26.012Z,66.30
2022-09-28T21:02:10.574Z,66.40
2022-09-28T21:05:52.437Z,66.50
2022-09-28T21:09:34.597Z,66.50
2022-09-28T21:13:16.582Z,66.50
2022-09-28T21:16:58.486Z,66.60
2022-09-28T21:20:47.736Z,66.60
2022-09-28T21:24:29.638Z,67.60
2022-09-28T21:28:20.830Z,66.60
2022-09-28T21:32:02.665Z,66.60
2022-09-28T21:35:44.486Z,66.70
2022-09-28T21:39:26.674Z,66.80
2022-09-28T21:43:08.536Z,66.80
2022-09-28T21:46:50.590Z,66.90
2022-09-28T21:50:32.737Z,66.90
2022-09-28T21:54:15.094Z,67.00
2022-09-28T21:57:56.976Z,67.10
2022-09-28T22:01:38.942Z,67.20
2022-09-28T22:05:20.849Z,67.30
2022-09-28T22:09:02.968Z,67.40
2022-09-28T22:12:44.842Z,67.60
2022-09-28T22:16:29.481Z,67.80
2022-09-28T22:20:11.276Z,68.00
2022-09-28T22:23:53.627Z,68.20
2022-09-28T22:27:35.452Z,68.30
2022-09-28T22:31:19.144Z,68.50
2022-09-28T22:35:01.338Z,68.70
2022-09-28T22:38:44.681Z,68.90
2022-09-28T22:42:26.696Z,69.00
2022-09-28T22:46:15.563Z,69.20
2022-09-28T22:49:57.416Z,69.40
2022-09-28T22:53:39.350Z,69.40
2022-09-28T22:57:21.799Z,69.40
2022-09-28T23:01:11.046Z,69.50
2022-09-28T23:04:52.920Z,69.90
2022-09-28T23:08:35.455Z,69.60
2022-09-28T23:12:17.595Z,69.70
2022-09-28T23:16:02.982Z,69.80
2022-09-28T23:19:44.900Z,69.90
2022-09-28T23:23:27.219Z,70.00
2022-09-28T23:27:09.118Z,70.00
2022-09-28T23:30:51.705Z,70.10
2022-09-28T23:34:33.676Z,70.10
2022-09-28T23:38:18.463Z,70.20
2022-09-28T23:42:00.391Z,70.30
2022-09-28T23:45:45.711Z,70.50
2022-09-28T23:49:27.615Z,70.80
2022-09-28T23:53:10.310Z,70.60
2022-09-28T23:56:52.336Z,70.70
